sensor_id;sensor_type;location;lat;lon;timestamp;P1;durP1;ratioP1;P2;durP2;ratioP2
15271;SDS011;7737;51.578;7.268;2023-06-19T00:01:27;5.32;;;4.90;;
15271;SDS011;7737;51.578;7.268;2023-06-19T00:03:53;5.40;;;4.75;;
15271;SDS011;7737;51.578;7.268;2023-06-19T00:06:20;4.63;;;4.30;;
15271;SDS011;7737;51.578;7.268;2023-06-19T00:08:46;5.22;;;4.78;;
15271;SDS011;7737;51.578;7.268;2023-06-19T00:11:12;5.00;;;4.28;;
15271;SDS011;7737;51.578;7.268;2023-06-19T00:13:39;4.85;;;4.45;;
15271;SDS011;7737;51.578;7.268;2023-06-19T00:16:05;5.55;;;5.00;;
15271;SDS011;7737;51.578;7.268;2023-06-19T00:18:33;5.50;;;5.00;;
15271;SDS011;7737;51.578;7.268;2023-06-19T00:21:05;5.47;;;4.97;;
15271;SDS011;7737;51.578;7.268;2023-06-19T00:23:32;6.40;;;5.13;;
15271;SDS011;7737;51.578;7.268;2023-06-19T00:25:59;5.20;;;4.75;;
15271;SDS011;7737;51.578;7.268;2023-06-19T00:28:26;5.40;;;4.72;;
15271;SDS011;7737;51.578;7.268;2023-06-19T00:30:52;4.97;;;4.57;;
15271;SDS011;7737;51.578;7.268;2023-06-19T00:33:19;5.30;;;4.80;;
15271;SDS011;7737;51.578;7.268;2023-06-19T00:35:47;5.03;;;4.63;;
15271;SDS011;7737;51.578;7.268;2023-06-19T00:38:13;5.20;;;4.80;;
15271;SDS011;7737;51.578;7.268;2023-06-19T00:40:40;5.28;;;4.78;;
15271;SDS011;7737;51.578;7.268;2023-06-19T00:43:06;5.38;;;4.97;;
15271;SDS011;7737;51.578;7.268;2023-06-19T00:45:33;4.85;;;4.45;;
15271;SDS011;7737;51.578;7.268;2023-06-19T00:47:59;6.22;;;4.90;;
15271;SDS011;7737;51.578;7.268;2023-06-19T00:50:27;5.35;;;4.88;;
15271;SDS011;7737;51.578;7.268;2023-06-19T00:52:56;4.80;;;4.40;;
15271;SDS011;7737;51.578;7.268;2023-06-19T00:55:24;5.20;;;4.70;;
15271;SDS011;7737;51.578;7.268;2023-06-19T00:57:54;5.18;;;4.70;;
15271;SDS011;7737;51.578;7.268;2023-06-19T01:00:20;5.13;;;4.63;;
15271;SDS011;7737;51.578;7.268;2023-06-19T01:02:47;5.40;;;4.93;;
15271;SDS011;7737;51.578;7.268;2023-06-19T01:05:13;5.60;;;5.10;;
15271;SDS011;7737;51.578;7.268;2023-06-19T01:07:41;4.97;;;4.60;;
15271;SDS011;7737;51.578;7.268;2023-06-19T01:13:00;5.20;;;4.80;;
15271;SDS011;7737;51.578;7.268;2023-06-19T01:15:31;5.32;;;4.82;;
15271;SDS011;7737;51.578;7.268;2023-06-19T01:17:58;4.72;;;4.43;;
15271;SDS011;7737;51.578;7.268;2023-06-19T01:20:25;4.80;;;4.40;;
15271;SDS011;7737;51.578;7.268;2023-06-19T01:22:53;4.97;;;4.47;;
15271;SDS011;7737;51.578;7.268;2023-06-19T01:25:21;5.18;;;4.68;;
15271;SDS011;7737;51.578;7.268;2023-06-19T01:27:49;5.00;;;4.50;;
15271;SDS011;7737;51.578;7.268;2023-06-19T01:30:16;5.15;;;4.68;;
15271;SDS011;7737;51.578;7.268;2023-06-19T01:32:44;4.78;;;4.45;;
15271;SDS011;7737;51.578;7.268;2023-06-19T01:35:17;4.85;;;4.45;;
15271;SDS011;7737;51.578;7.268;2023-06-19T01:37:47;5.22;;;4.70;;
15271;SDS011;7737;51.578;7.268;2023-06-19T01:40:17;5.30;;;4.82;;
15271;SDS011;7737;51.578;7.268;2023-06-19T01:42:46;5.20;;;4.80;;
15271;SDS011;7737;51.578;7.268;2023-06-19T01:45:13;5.53;;;4.93;;
15271;SDS011;7737;51.578;7.268;2023-06-19T01:47:40;5.20;;;4.70;;
15271;SDS011;7737;51.578;7.268;2023-06-19T01:50:07;5.53;;;5.03;;
15271;SDS011;7737;51.578;7.268;2023-06-19T01:52:35;5.40;;;4.90;;
15271;SDS011;7737;51.578;7.268;2023-06-19T01:55:01;5.68;;;5.10;;
15271;SDS011;7737;51.578;7.268;2023-06-19T01:57:29;5.53;;;5.10;;
15271;SDS011;7737;51.578;7.268;2023-06-19T01:59:56;5.35;;;4.95;;
15271;SDS011;7737;51.578;7.268;2023-06-19T02:02:23;5.25;;;4.70;;
15271;SDS011;7737;51.578;7.268;2023-06-19T02:04:50;5.22;;;4.82;;
15271;SDS011;7737;51.578;7.268;2023-06-19T02:07:16;5.32;;;4.88;;
15271;SDS011;7737;51.578;7.268;2023-06-19T02:09:43;5.30;;;4.90;;
15271;SDS011;7737;51.578;7.268;2023-06-19T02:12:09;5.10;;;4.70;;
15271;SDS011;7737;51.578;7.268;2023-06-19T02:14:37;5.45;;;4.95;;
15271;SDS011;7737;51.578;7.268;2023-06-19T02:17:04;5.63;;;5.22;;
15271;SDS011;7737;51.578;7.268;2023-06-19T02:19:30;5.45;;;5.00;;
15271;SDS011;7737;51.578;7.268;2023-06-19T02:21:57;5.47;;;5.07;;
15271;SDS011;7737;51.578;7.268;2023-06-19T02:24:23;5.40;;;4.95;;
15271;SDS011;7737;51.578;7.268;2023-06-19T02:26:49;5.72;;;5.32;;
15271;SDS011;7737;51.578;7.268;2023-06-19T02:29:16;5.72;;;5.20;;
15271;SDS011;7737;51.578;7.268;2023-06-19T02:31:45;5.53;;;4.90;;
15271;SDS011;7737;51.578;7.268;2023-06-19T02:34:11;5.60;;;5.10;;
15271;SDS011;7737;51.578;7.268;2023-06-19T02:36:38;5.07;;;4.68;;
15271;SDS011;7737;51.578;7.268;2023-06-19T02:39:04;5.00;;;4.60;;
15271;SDS011;7737;51.578;7.268;2023-06-19T02:41:31;5.28;;;4.78;;
15271;SDS011;7737;51.578;7.268;2023-06-19T02:43:58;5.65;;;5.15;;
15271;SDS011;7737;51.578;7.268;2023-06-19T02:46:24;5.22;;;4.82;;
15271;SDS011;7737;51.578;7.268;2023-06-19T02:48:52;5.65;;;5.15;;
15271;SDS011;7737;51.578;7.268;2023-06-19T02:51:18;5.50;;;5.00;;
15271;SDS011;7737;51.578;7.268;2023-06-19T02:53:45;5.28;;;4.82;;
15271;SDS011;7737;51.578;7.268;2023-06-19T02:56:12;5.38;;;4.97;;
15271;SDS011;7737;51.578;7.268;2023-06-19T02:58:39;5.47;;;5.03;;
15271;SDS011;7737;51.578;7.268;2023-06-19T03:01:06;5.63;;;5.22;;
15271;SDS011;7737;51.578;7.268;2023-06-19T03:03:33;5.88;;;5.40;;
15271;SDS011;7737;51.578;7.268;2023-06-19T03:06:04;5.40;;;5.00;;
15271;SDS011;7737;51.578;7.268;2023-06-19T03:08:30;5.68;;;5.18;;
15271;SDS011;7737;51.578;7.268;2023-06-19T03:10:57;5.72;;;5.20;;
15271;SDS011;7737;51.578;7.268;2023-06-19T03:13:23;5.50;;;5.00;;
15271;SDS011;7737;51.578;7.268;2023-06-19T03:15:50;5.88;;;5.30;;
15271;SDS011;7737;51.578;7.268;2023-06-19T03:18:16;5.90;;;5.30;;
15271;SDS011;7737;51.578;7.268;2023-06-19T03:20:43;5.93;;;4.85;;
15271;SDS011;7737;51.578;7.268;2023-06-19T03:23:11;5.78;;;5.28;;
15271;SDS011;7737;51.578;7.268;2023-06-19T03:25:37;5.85;;;5.35;;
15271;SDS011;7737;51.578;7.268;2023-06-19T03:28:07;5.50;;;5.00;;
15271;SDS011;7737;51.578;7.268;2023-06-19T03:30:34;5.78;;;5.18;;
15271;SDS011;7737;51.578;7.268;2023-06-19T03:33:04;5.47;;;4.97;;
15271;SDS011;7737;51.578;7.268;2023-06-19T03:35:30;5.18;;;4.70;;
15271;SDS011;7737;51.578;7.268;2023-06-19T03:37:57;5.05;;;4.65;;
15271;SDS011;7737;51.578;7.268;2023-06-19T03:40:24;5.20;;;4.55;;
15271;SDS011;7737;51.578;7.268;2023-06-19T03:42:51;4.90;;;4.50;;
15271;SDS011;7737;51.578;7.268;2023-06-19T03:45:17;4.95;;;4.40;;
15271;SDS011;7737;51.578;7.268;2023-06-19T03:47:44;4.80;;;4.40;;
15271;SDS011;7737;51.578;7.268;2023-06-19T03:50:10;4.53;;;4.13;;
15271;SDS011;7737;51.578;7.268;2023-06-19T03:52:37;6.00;;;4.47;;
15271;SDS011;7737;51.578;7.268;2023-06-19T03:55:04;4.53;;;4.15;;
15271;SDS011;7737;51.578;7.268;2023-06-19T03:57:32;4.60;;;4.30;;
15271;SDS011;7737;51.578;7.268;2023-06-19T03:59:59;4.60;;;4.20;;
15271;SDS011;7737;51.578;7.268;2023-06-19T04:02:25;4.82;;;3.85;;
15271;SDS011;7737;51.578;7.268;2023-06-19T04:04:52;4.13;;;3.72;;
15271;SDS011;7737;51.578;7.268;2023-06-19T04:07:19;6.28;;;4.32;;
15271;SDS011;7737;51.578;7.268;2023-06-19T04:09:45;4.45;;;4.10;;
15271;SDS011;7737;51.578;7.268;2023-06-19T04:12:12;4.32;;;4.00;;
15271;SDS011;7737;51.578;7.268;2023-06-19T04:14:40;5.47;;;4.80;;
15271;SDS011;7737;51.578;7.268;2023-06-19T04:17:06;5.28;;;4.78;;
15271;SDS011;7737;51.578;7.268;2023-06-19T04:19:33;4.95;;;4.55;;
15271;SDS011;7737;51.578;7.268;2023-06-19T04:21:59;4.80;;;4.30;;
15271;SDS011;7737;51.578;7.268;2023-06-19T04:24:26;4.53;;;4.13;;
15271;SDS011;7737;51.578;7.268;2023-06-19T04:26:52;4.25;;;3.88;;
15271;SDS011;7737;51.578;7.268;2023-06-19T04:29:19;4.45;;;4.05;;
15271;SDS011;7737;51.578;7.268;2023-06-19T04:31:46;3.78;;;3.47;;
15271;SDS011;7737;51.578;7.268;2023-06-19T04:34:15;3.80;;;3.50;;
15271;SDS011;7737;51.578;7.268;2023-06-19T04:36:42;3.88;;;3.55;;
15271;SDS011;7737;51.578;7.268;2023-06-19T04:39:08;3.47;;;3.17;;
15271;SDS011;7737;51.578;7.268;2023-06-19T04:41:35;3.50;;;3.15;;
15271;SDS011;7737;51.578;7.268;2023-06-19T04:44:03;3.35;;;3.00;;
15271;SDS011;7737;51.578;7.268;2023-06-19T04:46:31;3.00;;;2.67;;
15271;SDS011;7737;51.578;7.268;2023-06-19T04:48:59;3.65;;;2.55;;
15271;SDS011;7737;51.578;7.268;2023-06-19T04:51:28;2.92;;;2.72;;
15271;SDS011;7737;51.578;7.268;2023-06-19T04:53:55;3.80;;;3.17;;
15271;SDS011;7737;51.578;7.268;2023-06-19T04:56:22;4.50;;;3.00;;
15271;SDS011;7737;51.578;7.268;2023-06-19T04:58:48;3.15;;;2.75;;
15271;SDS011;7737;51.578;7.268;2023-06-19T05:01:16;3.20;;;2.90;;
15271;SDS011;7737;51.578;7.268;2023-06-19T05:03:47;3.30;;;2.97;;
15271;SDS011;7737;51.578;7.268;2023-06-19T05:06:15;4.07;;;3.20;;
15271;SDS011;7737;51.578;7.268;2023-06-19T05:08:42;3.90;;;3.30;;
15271;SDS011;7737;51.578;7.268;2023-06-19T05:11:08;4.07;;;3.75;;
15271;SDS011;7737;51.578;7.268;2023-06-19T05:13:35;4.25;;;3.90;;
15271;SDS011;7737;51.578;7.268;2023-06-19T05:16:01;4.30;;;3.90;;
15271;SDS011;7737;51.578;7.268;2023-06-19T05:18:28;5.47;;;3.55;;
15271;SDS011;7737;51.578;7.268;2023-06-19T05:20:56;4.65;;;3.70;;
15271;SDS011;7737;51.578;7.268;2023-06-19T05:23:24;4.38;;;3.97;;
15271;SDS011;7737;51.578;7.268;2023-06-19T05:25:51;3.80;;;3.50;;
15271;SDS011;7737;51.578;7.268;2023-06-19T05:28:17;4.00;;;3.50;;
15271;SDS011;7737;51.578;7.268;2023-06-19T05:30:44;3.97;;;3.58;;
15271;SDS011;7737;51.578;7.268;2023-06-19T05:33:10;3.35;;;3.00;;
15271;SDS011;7737;51.578;7.268;2023-06-19T05:35:40;3.28;;;2.97;;
15271;SDS011;7737;51.578;7.268;2023-06-19T05:38:07;3.20;;;2.72;;
15271;SDS011;7737;51.578;7.268;2023-06-19T05:40:35;4.28;;;2.78;;
15271;SDS011;7737;51.578;7.268;2023-06-19T05:43:02;3.03;;;2.80;;
15271;SDS011;7737;51.578;7.268;2023-06-19T05:45:28;3.00;;;2.70;;
15271;SDS011;7737;51.578;7.268;2023-06-19T05:47:55;3.20;;;3.00;;
15271;SDS011;7737;51.578;7.268;2023-06-19T05:50:22;3.35;;;3.05;;
15271;SDS011;7737;51.578;7.268;2023-06-19T05:52:48;3.40;;;2.83;;
15271;SDS011;7737;51.578;7.268;2023-06-19T05:55:14;3.35;;;3.05;;
15271;SDS011;7737;51.578;7.268;2023-06-19T05:57:42;3.10;;;2.90;;
15271;SDS011;7737;51.578;7.268;2023-06-19T06:00:09;3.30;;;3.00;;
15271;SDS011;7737;51.578;7.268;2023-06-19T06:02:39;5.50;;;3.00;;
15271;SDS011;7737;51.578;7.268;2023-06-19T06:05:06;2.80;;;2.60;;
15271;SDS011;7737;51.578;7.268;2023-06-19T06:07:34;3.25;;;2.80;;
15271;SDS011;7737;51.578;7.268;2023-06-19T06:10:01;3.47;;;3.17;;
15271;SDS011;7737;51.578;7.268;2023-06-19T06:12:28;4.30;;;2.63;;
15271;SDS011;7737;51.578;7.268;2023-06-19T06:14:56;3.13;;;2.88;;
15271;SDS011;7737;51.578;7.268;2023-06-19T06:17:22;3.60;;;3.30;;
15271;SDS011;7737;51.578;7.268;2023-06-19T06:19:49;4.10;;;3.67;;
15271;SDS011;7737;51.578;7.268;2023-06-19T06:22:15;4.60;;;4.20;;
15271;SDS011;7737;51.578;7.268;2023-06-19T06:24:43;5.03;;;4.63;;
15271;SDS011;7737;51.578;7.268;2023-06-19T06:27:11;4.75;;;4.43;;
15271;SDS011;7737;51.578;7.268;2023-06-19T06:29:38;5.25;;;4.75;;
15271;SDS011;7737;51.578;7.268;2023-06-19T06:32:06;5.45;;;5.05;;
15271;SDS011;7737;51.578;7.268;2023-06-19T06:34:34;5.63;;;5.00;;
15271;SDS011;7737;51.578;7.268;2023-06-19T06:37:01;5.03;;;4.70;;
15271;SDS011;7737;51.578;7.268;2023-06-19T06:39:28;4.80;;;4.40;;
15271;SDS011;7737;51.578;7.268;2023-06-19T06:41:54;4.47;;;4.07;;
15271;SDS011;7737;51.578;7.268;2023-06-19T06:44:21;4.57;;;4.18;;
15271;SDS011;7737;51.578;7.268;2023-06-19T06:46:48;4.85;;;4.15;;
15271;SDS011;7737;51.578;7.268;2023-06-19T06:49:16;4.40;;;3.97;;
15271;SDS011;7737;51.578;7.268;2023-06-19T06:51:42;7.88;;;4.45;;
15271;SDS011;7737;51.578;7.268;2023-06-19T06:54:09;4.53;;;4.13;;
15271;SDS011;7737;51.578;7.268;2023-06-19T06:56:35;4.05;;;3.75;;
15271;SDS011;7737;51.578;7.268;2023-06-19T06:59:02;5.22;;;3.90;;
15271;SDS011;7737;51.578;7.268;2023-06-19T07:01:28;5.10;;;3.85;;
15271;SDS011;7737;51.578;7.268;2023-06-19T07:03:55;3.67;;;3.38;;
15271;SDS011;7737;51.578;7.268;2023-06-19T07:06:23;4.20;;;3.22;;
15271;SDS011;7737;51.578;7.268;2023-06-19T07:08:49;3.40;;;3.00;;
15271;SDS011;7737;51.578;7.268;2023-06-19T07:11:16;3.20;;;2.90;;
15271;SDS011;7737;51.578;7.268;2023-06-19T07:13:42;3.72;;;3.00;;
15271;SDS011;7737;51.578;7.268;2023-06-19T07:16:09;3.83;;;2.97;;
15271;SDS011;7737;51.578;7.268;2023-06-19T07:18:35;4.10;;;3.17;;
15271;SDS011;7737;51.578;7.268;2023-06-19T07:21:03;3.75;;;3.05;;
15271;SDS011;7737;51.578;7.268;2023-06-19T07:23:38;4.45;;;3.05;;
15271;SDS011;7737;51.578;7.268;2023-06-19T07:26:05;5.18;;;3.13;;
15271;SDS011;7737;51.578;7.268;2023-06-19T07:28:32;3.25;;;2.95;;
15271;SDS011;7737;51.578;7.268;2023-06-19T07:31:01;3.50;;;3.20;;
15271;SDS011;7737;51.578;7.268;2023-06-19T07:33:27;3.55;;;3.25;;
15271;SDS011;7737;51.578;7.268;2023-06-19T07:35:54;3.50;;;3.20;;
15271;SDS011;7737;51.578;7.268;2023-06-19T07:38:20;3.50;;;3.10;;
15271;SDS011;7737;51.578;7.268;2023-06-19T07:40:48;3.50;;;3.20;;
15271;SDS011;7737;51.578;7.268;2023-06-19T07:43:15;3.60;;;3.30;;
15271;SDS011;7737;51.578;7.268;2023-06-19T07:45:42;3.70;;;2.90;;
15271;SDS011;7737;51.578;7.268;2023-06-19T07:48:09;4.72;;;3.53;;
15271;SDS011;7737;51.578;7.268;2023-06-19T07:50:35;3.50;;;3.00;;
15271;SDS011;7737;51.578;7.268;2023-06-19T07:53:01;3.30;;;3.00;;
15271;SDS011;7737;51.578;7.268;2023-06-19T07:55:28;4.28;;;2.83;;
15271;SDS011;7737;51.578;7.268;2023-06-19T07:57:56;3.30;;;3.00;;
15271;SDS011;7737;51.578;7.268;2023-06-19T08:00:22;3.67;;;2.90;;
15271;SDS011;7737;51.578;7.268;2023-06-19T08:02:49;3.35;;;2.90;;
15271;SDS011;7737;51.578;7.268;2023-06-19T08:05:16;3.90;;;2.85;;
15271;SDS011;7737;51.578;7.268;2023-06-19T08:07:43;3.20;;;2.90;;
15271;SDS011;7737;51.578;7.268;2023-06-19T08:10:10;2.90;;;2.70;;
15271;SDS011;7737;51.578;7.268;2023-06-19T08:12:36;2.70;;;2.30;;
15271;SDS011;7737;51.578;7.268;2023-06-19T08:15:05;3.63;;;2.40;;
15271;SDS011;7737;51.578;7.268;2023-06-19T08:17:32;2.00;;;1.90;;
15271;SDS011;7737;51.578;7.268;2023-06-19T08:19:59;2.92;;;2.20;;
15271;SDS011;7737;51.578;7.268;2023-06-19T08:22:26;3.10;;;2.00;;
15271;SDS011;7737;51.578;7.268;2023-06-19T08:24:53;5.47;;;2.25;;
15271;SDS011;7737;51.578;7.268;2023-06-19T08:27:20;4.00;;;2.90;;
15271;SDS011;7737;51.578;7.268;2023-06-19T08:29:47;3.65;;;2.90;;
15271;SDS011;7737;51.578;7.268;2023-06-19T08:32:16;3.47;;;2.83;;
15271;SDS011;7737;51.578;7.268;2023-06-19T08:34:42;3.50;;;2.95;;
15271;SDS011;7737;51.578;7.268;2023-06-19T08:37:09;2.95;;;2.55;;
15271;SDS011;7737;51.578;7.268;2023-06-19T08:39:35;4.20;;;2.22;;
15271;SDS011;7737;51.578;7.268;2023-06-19T08:42:04;4.07;;;2.20;;
15271;SDS011;7737;51.578;7.268;2023-06-19T08:44:32;2.55;;;2.35;;
15271;SDS011;7737;51.578;7.268;2023-06-19T08:46:59;3.28;;;2.30;;
15271;SDS011;7737;51.578;7.268;2023-06-19T08:49:27;4.63;;;2.47;;
15271;SDS011;7737;51.578;7.268;2023-06-19T08:51:55;2.92;;;2.17;;
15271;SDS011;7737;51.578;7.268;2023-06-19T08:54:22;2.47;;;2.17;;
15271;SDS011;7737;51.578;7.268;2023-06-19T08:56:50;2.53;;;2.10;;
15271;SDS011;7737;51.578;7.268;2023-06-19T08:59:19;3.83;;;2.33;;
15271;SDS011;7737;51.578;7.268;2023-06-19T09:01:46;2.85;;;1.73;;
15271;SDS011;7737;51.578;7.268;2023-06-19T09:04:18;2.65;;;1.90;;
15271;SDS011;7737;51.578;7.268;2023-06-19T09:06:50;2.22;;;2.03;;
15271;SDS011;7737;51.578;7.268;2023-06-19T09:09:18;2.67;;;1.90;;
15271;SDS011;7737;51.578;7.268;2023-06-19T09:11:56;2.13;;;1.90;;
15271;SDS011;7737;51.578;7.268;2023-06-19T09:14:24;1.70;;;1.60;;
15271;SDS011;7737;51.578;7.268;2023-06-19T09:16:57;1.75;;;1.60;;
15271;SDS011;7737;51.578;7.268;2023-06-19T09:19:24;2.38;;;1.48;;
15271;SDS011;7737;51.578;7.268;2023-06-19T09:21:52;1.52;;;1.42;;
15271;SDS011;7737;51.578;7.268;2023-06-19T09:24:18;4.38;;;1.80;;
15271;SDS011;7737;51.578;7.268;2023-06-19T09:26:45;4.00;;;1.98;;
15271;SDS011;7737;51.578;7.268;2023-06-19T09:29:12;1.52;;;1.40;;
15271;SDS011;7737;51.578;7.268;2023-06-19T09:31:40;2.38;;;1.58;;
15271;SDS011;7737;51.578;7.268;2023-06-19T09:34:07;2.92;;;1.65;;
15271;SDS011;7737;51.578;7.268;2023-06-19T09:36:34;4.15;;;2.00;;
15271;SDS011;7737;51.578;7.268;2023-06-19T09:39:02;2.42;;;2.08;;
15271;SDS011;7737;51.578;7.268;2023-06-19T09:41:30;2.20;;;1.98;;
15271;SDS011;7737;51.578;7.268;2023-06-19T09:43:57;2.67;;;2.40;;
15271;SDS011;7737;51.578;7.268;2023-06-19T09:46:26;2.53;;;2.33;;
15271;SDS011;7737;51.578;7.268;2023-06-19T09:48:55;4.45;;;2.50;;
15271;SDS011;7737;51.578;7.268;2023-06-19T09:51:27;4.55;;;3.00;;
15271;SDS011;7737;51.578;7.268;2023-06-19T09:53:57;3.38;;;2.70;;
15271;SDS011;7737;51.578;7.268;2023-06-19T09:56:25;5.00;;;2.88;;
15271;SDS011;7737;51.578;7.268;2023-06-19T09:58:55;3.95;;;2.72;;
15271;SDS011;7737;51.578;7.268;2023-06-19T10:01:25;3.47;;;2.70;;
15271;SDS011;7737;51.578;7.268;2023-06-19T10:04:01;3.47;;;2.95;;
15271;SDS011;7737;51.578;7.268;2023-06-19T10:06:29;5.10;;;3.15;;
15271;SDS011;7737;51.578;7.268;2023-06-19T10:08:56;4.78;;;2.70;;
15271;SDS011;7737;51.578;7.268;2023-06-19T10:11:45;2.88;;;2.67;;
15271;SDS011;7737;51.578;7.268;2023-06-19T10:14:12;3.10;;;2.65;;
15271;SDS011;7737;51.578;7.268;2023-06-19T10:16:40;4.05;;;2.67;;
15271;SDS011;7737;51.578;7.268;2023-06-19T10:19:11;3.55;;;2.58;;
15271;SDS011;7737;51.578;7.268;2023-06-19T10:21:43;3.03;;;2.53;;
15271;SDS011;7737;51.578;7.268;2023-06-19T10:24:13;3.10;;;2.90;;
15271;SDS011;7737;51.578;7.268;2023-06-19T10:26:40;4.25;;;3.03;;
15271;SDS011;7737;51.578;7.268;2023-06-19T10:29:14;4.15;;;2.92;;
15271;SDS011;7737;51.578;7.268;2023-06-19T10:31:41;3.17;;;2.88;;
15271;SDS011;7737;51.578;7.268;2023-06-19T10:34:09;3.85;;;3.15;;
15271;SDS011;7737;51.578;7.268;2023-06-19T10:36:37;5.28;;;3.10;;
15271;SDS011;7737;51.578;7.268;2023-06-19T10:39:03;3.15;;;2.95;;
15271;SDS011;7737;51.578;7.268;2023-06-19T10:41:32;4.53;;;3.17;;
15271;SDS011;7737;51.578;7.268;2023-06-19T10:43:59;3.55;;;3.10;;
15271;SDS011;7737;51.578;7.268;2023-06-19T10:46:29;4.88;;;3.20;;
15271;SDS011;7737;51.578;7.268;2023-06-19T10:48:57;3.78;;;3.30;;
15271;SDS011;7737;51.578;7.268;2023-06-19T10:51:26;6.03;;;3.78;;
15271;SDS011;7737;51.578;7.268;2023-06-19T10:53:53;4.45;;;3.28;;
15271;SDS011;7737;51.578;7.268;2023-06-19T10:56:20;3.60;;;2.88;;
15271;SDS011;7737;51.578;7.268;2023-06-19T10:58:47;3.60;;;3.10;;
15271;SDS011;7737;51.578;7.268;2023-06-19T11:01:13;5.95;;;3.40;;
15271;SDS011;7737;51.578;7.268;2023-06-19T11:03:42;3.50;;;3.20;;
15271;SDS011;7737;51.578;7.268;2023-06-19T11:06:08;4.63;;;2.92;;
15271;SDS011;7737;51.578;7.268;2023-06-19T11:08:35;4.65;;;3.20;;
15271;SDS011;7737;51.578;7.268;2023-06-19T11:11:01;3.65;;;3.35;;
15271;SDS011;7737;51.578;7.268;2023-06-19T11:13:28;3.97;;;3.50;;
15271;SDS011;7737;51.578;7.268;2023-06-19T11:15:54;4.95;;;3.10;;
15271;SDS011;7737;51.578;7.268;2023-06-19T11:18:21;3.22;;;2.92;;
15271;SDS011;7737;51.578;7.268;2023-06-19T11:20:49;4.38;;;3.13;;
15271;SDS011;7737;51.578;7.268;2023-06-19T11:23:24;4.22;;;3.53;;
15271;SDS011;7737;51.578;7.268;2023-06-19T11:25:51;4.10;;;3.35;;
15271;SDS011;7737;51.578;7.268;2023-06-19T11:28:18;4.25;;;3.50;;
15271;SDS011;7737;51.578;7.268;2023-06-19T11:30:47;3.85;;;3.45;;
15271;SDS011;7737;51.578;7.268;2023-06-19T11:33:15;4.07;;;3.63;;
15271;SDS011;7737;51.578;7.268;2023-06-19T11:35:46;4.47;;;3.28;;
15271;SDS011;7737;51.578;7.268;2023-06-19T11:38:18;4.80;;;3.42;;
15271;SDS011;7737;51.578;7.268;2023-06-19T11:40:46;3.90;;;3.60;;
15271;SDS011;7737;51.578;7.268;2023-06-19T11:43:23;3.90;;;3.45;;
15271;SDS011;7737;51.578;7.268;2023-06-19T11:45:50;5.32;;;3.65;;
15271;SDS011;7737;51.578;7.268;2023-06-19T11:48:27;4.00;;;3.70;;
15271;SDS011;7737;51.578;7.268;2023-06-19T11:50:55;4.63;;;3.90;;
15271;SDS011;7737;51.578;7.268;2023-06-19T11:53:22;4.82;;;3.47;;
15271;SDS011;7737;51.578;7.268;2023-06-19T11:55:50;4.28;;;3.88;;
15271;SDS011;7737;51.578;7.268;2023-06-19T11:58:17;4.05;;;3.67;;
15271;SDS011;7737;51.578;7.268;2023-06-19T12:00:45;4.28;;;3.88;;
15271;SDS011;7737;51.578;7.268;2023-06-19T12:03:13;3.78;;;3.47;;
15271;SDS011;7737;51.578;7.268;2023-06-19T12:05:39;4.07;;;3.67;;
15271;SDS011;7737;51.578;7.268;2023-06-19T12:08:07;4.00;;;3.70;;
15271;SDS011;7737;51.578;7.268;2023-06-19T12:10:34;7.38;;;4.20;;
15271;SDS011;7737;51.578;7.268;2023-06-19T12:13:01;5.40;;;4.00;;
15271;SDS011;7737;51.578;7.268;2023-06-19T12:15:27;5.70;;;4.10;;
15271;SDS011;7737;51.578;7.268;2023-06-19T12:17:54;3.67;;;3.47;;
15271;SDS011;7737;51.578;7.268;2023-06-19T12:20:22;4.25;;;3.90;;
15271;SDS011;7737;51.578;7.268;2023-06-19T12:22:49;4.30;;;3.90;;
15271;SDS011;7737;51.578;7.268;2023-06-19T12:25:17;5.13;;;3.97;;
15271;SDS011;7737;51.578;7.268;2023-06-19T12:27:43;4.20;;;3.90;;
15271;SDS011;7737;51.578;7.268;2023-06-19T12:30:10;4.40;;;3.90;;
15271;SDS011;7737;51.578;7.268;2023-06-19T12:32:37;6.75;;;4.45;;
15271;SDS011;7737;51.578;7.268;2023-06-19T12:35:04;4.28;;;3.97;;
15271;SDS011;7737;51.578;7.268;2023-06-19T12:37:32;5.00;;;4.00;;
15271;SDS011;7737;51.578;7.268;2023-06-19T12:39:59;5.80;;;4.15;;
15271;SDS011;7737;51.578;7.268;2023-06-19T12:42:27;4.45;;;4.05;;
15271;SDS011;7737;51.578;7.268;2023-06-19T12:44:53;4.35;;;3.95;;
15271;SDS011;7737;51.578;7.268;2023-06-19T12:47:20;4.20;;;3.80;;
15271;SDS011;7737;51.578;7.268;2023-06-19T12:49:47;4.45;;;4.00;;
15271;SDS011;7737;51.578;7.268;2023-06-19T12:52:13;4.72;;;4.32;;
15271;SDS011;7737;51.578;7.268;2023-06-19T12:54:39;7.22;;;3.97;;
15271;SDS011;7737;51.578;7.268;2023-06-19T12:57:07;4.57;;;4.00;;
15271;SDS011;7737;51.578;7.268;2023-06-19T12:59:35;7.80;;;4.35;;
15271;SDS011;7737;51.578;7.268;2023-06-19T13:02:01;6.07;;;4.22;;
15271;SDS011;7737;51.578;7.268;2023-06-19T13:04:28;5.68;;;4.30;;
15271;SDS011;7737;51.578;7.268;2023-06-19T13:06:55;4.50;;;4.13;;
15271;SDS011;7737;51.578;7.268;2023-06-19T13:09:21;5.85;;;4.53;;
15271;SDS011;7737;51.578;7.268;2023-06-19T13:11:48;4.85;;;4.40;;
15271;SDS011;7737;51.578;7.268;2023-06-19T13:14:14;5.70;;;4.60;;
15271;SDS011;7737;51.578;7.268;2023-06-19T13:16:42;5.75;;;5.07;;
15271;SDS011;7737;51.578;7.268;2023-06-19T13:19:09;6.97;;;5.00;;
15271;SDS011;7737;51.578;7.268;2023-06-19T13:21:36;5.03;;;4.50;;
15271;SDS011;7737;51.578;7.268;2023-06-19T13:24:02;5.00;;;4.50;;
15271;SDS011;7737;51.578;7.268;2023-06-19T13:26:29;5.35;;;4.50;;
15271;SDS011;7737;51.578;7.268;2023-06-19T13:28:55;4.75;;;4.35;;
15271;SDS011;7737;51.578;7.268;2023-06-19T13:31:23;6.75;;;4.88;;
15271;SDS011;7737;51.578;7.268;2023-06-19T13:33:51;6.25;;;4.50;;
15271;SDS011;7737;51.578;7.268;2023-06-19T13:36:18;4.97;;;4.47;;
15271;SDS011;7737;51.578;7.268;2023-06-19T13:38:45;4.85;;;4.38;;
15271;SDS011;7737;51.578;7.268;2023-06-19T13:41:12;5.18;;;4.68;;
15271;SDS011;7737;51.578;7.268;2023-06-19T13:43:38;6.13;;;4.53;;
15271;SDS011;7737;51.578;7.268;2023-06-19T13:46:05;6.57;;;5.15;;
15271;SDS011;7737;51.578;7.268;2023-06-19T13:48:31;5.63;;;4.55;;
15271;SDS011;7737;51.578;7.268;2023-06-19T13:51:00;5.20;;;4.70;;
15271;SDS011;7737;51.578;7.268;2023-06-19T13:53:27;5.25;;;4.55;;
15271;SDS011;7737;51.578;7.268;2023-06-19T13:55:54;5.35;;;4.70;;
15271;SDS011;7737;51.578;7.268;2023-06-19T13:58:21;5.00;;;4.50;;
15271;SDS011;7737;51.578;7.268;2023-06-19T14:00:47;4.93;;;4.53;;
15271;SDS011;7737;51.578;7.268;2023-06-19T14:03:14;5.30;;;4.15;;
15271;SDS011;7737;51.578;7.268;2023-06-19T14:05:41;4.97;;;4.53;;
15271;SDS011;7737;51.578;7.268;2023-06-19T14:08:09;4.97;;;4.47;;
15271;SDS011;7737;51.578;7.268;2023-06-19T14:10:36;6.10;;;4.43;;
15271;SDS011;7737;51.578;7.268;2023-06-19T14:13:02;4.63;;;4.22;;
15271;SDS011;7737;51.578;7.268;2023-06-19T14:15:29;5.38;;;4.68;;
15271;SDS011;7737;51.578;7.268;2023-06-19T14:17:55;5.10;;;4.60;;
15271;SDS011;7737;51.578;7.268;2023-06-19T14:20:22;5.57;;;5.00;;
15271;SDS011;7737;51.578;7.268;2023-06-19T14:22:48;4.97;;;4.50;;
15271;SDS011;7737;51.578;7.268;2023-06-19T14:25:16;5.82;;;4.10;;
15271;SDS011;7737;51.578;7.268;2023-06-19T14:27:43;4.18;;;3.88;;
15271;SDS011;7737;51.578;7.268;2023-06-19T14:30:09;4.18;;;3.83;;
15271;SDS011;7737;51.578;7.268;2023-06-19T14:32:36;4.88;;;4.22;;
15271;SDS011;7737;51.578;7.268;2023-06-19T14:35:03;4.80;;;4.15;;
15271;SDS011;7737;51.578;7.268;2023-06-19T14:37:30;6.57;;;4.45;;
15271;SDS011;7737;51.578;7.268;2023-06-19T14:39:57;4.53;;;4.13;;
15271;SDS011;7737;51.578;7.268;2023-06-19T14:42:25;4.78;;;4.38;;
15271;SDS011;7737;51.578;7.268;2023-06-19T14:44:51;4.75;;;4.32;;
15271;SDS011;7737;51.578;7.268;2023-06-19T14:47:18;4.50;;;4.10;;
15271;SDS011;7737;51.578;7.268;2023-06-19T14:49:44;5.32;;;4.63;;
15271;SDS011;7737;51.578;7.268;2023-06-19T14:52:11;5.10;;;4.57;;
15271;SDS011;7737;51.578;7.268;2023-06-19T14:54:37;4.57;;;4.18;;
15271;SDS011;7737;51.578;7.268;2023-06-19T14:57:04;4.80;;;4.40;;
15271;SDS011;7737;51.578;7.268;2023-06-19T14:59:32;5.90;;;4.88;;
15271;SDS011;7737;51.578;7.268;2023-06-19T15:01:59;5.07;;;4.68;;
15271;SDS011;7737;51.578;7.268;2023-06-19T15:04:27;4.65;;;4.32;;